Main page
METAR-TAF:

METAR-TAF

Airports :

London Biggin Hill Airport

London Biggin Hill, England

latitude: 51-19N, longitude: 000-02E, elevation: 183 m

Current weather observation

The report was made 39 minutes ago, at 19:20 UTC
Wind 6 kt from the North/Northwest
Temperature 19°C
Humidity 43%
Pressure 1026 hPa
Visibility 10 km or more
no clouds below 1500 m and no cumulonimbus

METAR: EGKB 231920Z 33006KT CAVOK 19/06 Q1026

Time: 20:59 (19:59 UTC)

Forecast

The report was made 3 hours and 0 minutes ago, at 16:59 UTC
Forecast valid from 23 at 18 UTC to 23 at 21 UTC
Wind 7 kt from the Northwest
Visibility 10 km or more
no clouds below 1500 m and no cumulonimbus

TAF: EGKB 231659Z 2318/2321 31007KT CAVOK

Weather observations and forecasts of more than 4000 airports (METAR and TAF reports).

The available stations are represented by yellow and red dots on the map.

Hover mouse over dot to see the name of the station.

Then click to see weather observations and forecasts.

To change the map : click on the green buttons with a black cross to zoom in, on the green button with a dash to zoom out, or on the green arrows for adjacent maps.


METAR-TAF: